createdAt,value
2022-11-26T00:02:41.958Z,101276.09
2022-11-26T00:05:47.624Z,101280.56
2022-11-26T00:08:50.477Z,101281.41
2022-11-26T00:11:53.201Z,101286.81
2022-11-26T00:14:57.573Z,101293.03
2022-11-26T00:18:00.968Z,101295.72
2022-11-26T00:21:03.855Z,101289.50
2022-11-26T00:24:13.083Z,101300.25
2022-11-26T00:27:16.717Z,101291.31
2022-11-26T00:30:23.782Z,101303.78
2022-11-26T00:33:27.388Z,101305.59
2022-11-26T00:36:32.598Z,101305.56
2022-11-26T00:39:35.328Z,101314.53
2022-11-26T00:42:38.944Z,101310.97
2022-11-26T00:45:43.704Z,101328.81
2022-11-26T00:48:46.678Z,101332.38
2022-11-26T00:51:49.515Z,101329.69
2022-11-26T00:54:52.308Z,101313.56
2022-11-26T00:57:55.200Z,101318.03
2022-11-26T01:01:00.669Z,101334.09
2022-11-26T01:04:03.957Z,101340.34
2022-11-26T01:07:06.752Z,101344.81
2022-11-26T01:10:17.286Z,101350.13
2022-11-26T01:13:20.144Z,101344.69
2022-11-26T01:16:26.634Z,101353.63
2022-11-26T01:19:29.422Z,101355.47
2022-11-26T01:22:32.237Z,101362.56
2022-11-26T01:25:34.949Z,101365.22
2022-11-26T01:28:37.746Z,101363.38
2022-11-26T01:31:41.870Z,101357.97
2022-11-26T01:34:44.776Z,101359.69
2022-11-26T01:37:47.704Z,101360.53
2022-11-26T01:40:56.228Z,101364.06
2022-11-26T01:44:00.430Z,101375.75
2022-11-26T01:47:20.902Z,101386.47
2022-11-26T01:50:52.252Z,101388.28
2022-11-26T01:53:59.400Z,101390.91
2022-11-26T01:57:11.496Z,101388.19
2022-11-26T02:00:15.518Z,101385.47
2022-11-26T02:03:21.210Z,101369.38
2022-11-26T02:06:29.170Z,101393.47
2022-11-26T02:09:32.829Z,101390.78
2022-11-26T02:12:35.754Z,101393.41
2022-11-26T02:15:49.873Z,101401.44
2022-11-26T02:19:08.545Z,101406.78
2022-11-26T02:22:27.797Z,101400.50
2022-11-26T02:25:47.263Z,101413.00
2022-11-26T02:29:04.145Z,101406.81
2022-11-26T02:32:11.366Z,101423.75
2022-11-26T02:35:20.401Z,101422.84
2022-11-26T02:38:25.878Z,101437.13
2022-11-26T02:41:33.911Z,101443.41
2022-11-26T02:44:43.153Z,101435.34
2022-11-26T02:47:50.276Z,101438.03
2022-11-26T02:50:57.599Z,101431.75
2022-11-26T02:54:01.459Z,101443.41
2022-11-26T02:57:08.194Z,101414.91
2022-11-26T03:00:11.831Z,101442.56
2022-11-26T03:03:24.168Z,101448.84
2022-11-26T03:06:31.162Z,101457.75
2022-11-26T03:09:41.270Z,101460.50
2022-11-26T03:12:44.010Z,101463.19
2022-11-26T03:15:46.839Z,101459.59
2022-11-26T03:18:50.962Z,101457.81
2022-11-26T03:21:53.677Z,101465.81
2022-11-26T03:24:56.422Z,101468.50
2022-11-26T03:27:59.227Z,101463.97
2022-11-26T03:31:02.118Z,101471.13
2022-11-26T03:34:06.174Z,101472.03
2022-11-26T03:37:08.889Z,101471.06
2022-11-26T03:40:12.183Z,101471.06
2022-11-26T03:43:14.897Z,101477.41
2022-11-26T03:46:17.837Z,101479.19
2022-11-26T03:49:22.034Z,101480.03
2022-11-26T03:52:24.770Z,101489.88
2022-11-26T03:55:27.554Z,101488.94
2022-11-26T03:58:31.238Z,101492.59
2022-11-26T04:01:34.232Z,101490.78
2022-11-26T04:04:38.547Z,101493.44
2022-11-26T04:07:41.610Z,101490.72
2022-11-26T04:10:44.461Z,101500.56
2022-11-26T04:13:47.193Z,101497.88
2022-11-26T04:16:50.009Z,101502.38
2022-11-26T04:19:54.319Z,101493.41
2022-11-26T04:22:57.074Z,101499.59
2022-11-26T04:25:59.940Z,101497.91
2022-11-26T04:29:03.320Z,101495.22
2022-11-26T04:32:06.610Z,101503.25
2022-11-26T04:35:11.493Z,101505.06
2022-11-26T04:38:14.430Z,101503.28
2022-11-26T04:41:17.215Z,101502.38
2022-11-26T04:44:19.927Z,101501.53
2022-11-26T04:47:22.694Z,101508.78
2022-11-26T04:50:26.832Z,101511.47
2022-11-26T04:53:29.552Z,101511.47
2022-11-26T04:56:32.271Z,101506.09
2022-11-26T04:59:35.072Z,101510.56
2022-11-26T05:02:37.853Z,101503.41
2022-11-26T05:05:42.001Z,101516.97
2022-11-26T05:08:44.758Z,101521.50
2022-11-26T05:11:47.498Z,101528.72
2022-11-26T05:14:50.228Z,101532.34
2022-11-26T05:17:52.938Z,101527.06
2022-11-26T05:20:57.010Z,101526.19
2022-11-26T05:23:59.918Z,101524.47
2022-11-26T05:27:03.211Z,101533.47
2022-11-26T05:30:07.421Z,101543.34
2022-11-26T05:33:10.136Z,101540.69
2022-11-26T05:36:14.195Z,101539.81
2022-11-26T05:39:17.088Z,101546.06
2022-11-26T05:42:19.945Z,101557.69
2022-11-26T05:45:23.251Z,101560.41
2022-11-26T05:48:26.050Z,101552.34
2022-11-26T05:51:30.118Z,101556.84
2022-11-26T05:54:32.860Z,101557.72
2022-11-26T05:57:35.638Z,101566.66
2022-11-26T06:00:38.360Z,101572.03
2022-11-26T06:03:41.368Z,101568.44
2022-11-26T06:06:45.471Z,101568.44
2022-11-26T06:09:48.230Z,101571.13
2022-11-26T06:12:50.945Z,101583.63
2022-11-26T06:15:53.841Z,101588.06
2022-11-26T06:18:57.418Z,101579.16
2022-11-26T06:22:01.519Z,101593.44
2022-11-26T06:25:04.428Z,101594.34
2022-11-26T06:28:07.185Z,101603.28
2022-11-26T06:31:11.010Z,101605.06
2022-11-26T06:34:15.396Z,101605.97
2022-11-26T06:37:19.550Z,101613.09
2022-11-26T06:40:22.317Z,101618.44
2022-11-26T06:43:25.019Z,101626.50
2022-11-26T06:46:27.848Z,101635.44
2022-11-26T06:49:30.747Z,101638.09
2022-11-26T06:52:34.948Z,101646.19
2022-11-26T06:55:38.182Z,101643.47
2022-11-26T06:58:41.022Z,101639.00
2022-11-26T07:01:43.837Z,101648.81
2022-11-26T07:04:46.611Z,101661.31
2022-11-26T07:07:50.813Z,101663.97
2022-11-26T07:10:53.789Z,101670.22
2022-11-26T07:13:56.567Z,101670.25
2022-11-26T07:16:59.345Z,101685.44
2022-11-26T07:20:02.222Z,101681.84
2022-11-26T07:23:06.398Z,101689.88
2022-11-26T07:26:10.674Z,101684.53
2022-11-26T07:29:14.551Z,101698.00
2022-11-26T07:32:17.288Z,101694.44
2022-11-26T07:35:20.079Z,101698.94
2022-11-26T07:38:24.144Z,101698.09
2022-11-26T07:41:28.138Z,101704.34
2022-11-26T07:44:30.881Z,101703.47
2022-11-26T07:47:33.615Z,101717.81
2022-11-26T07:50:36.343Z,101708.88
2022-11-26T07:53:40.463Z,101716.94
2022-11-26T07:56:43.158Z,101722.31
2022-11-26T07:59:45.881Z,101720.50
2022-11-26T08:02:48.593Z,101734.84
2022-11-26T08:05:51.333Z,101743.78
2022-11-26T08:08:55.676Z,101745.59
2022-11-26T08:11:58.465Z,101742.91
2022-11-26T08:15:01.933Z,101742.00
2022-11-26T08:18:04.898Z,101743.78
2022-11-26T08:21:08.396Z,101738.44
2022-11-26T08:24:15.760Z,101752.78
2022-11-26T08:27:18.520Z,101760.81
2022-11-26T08:30:21.442Z,101754.47
2022-11-26T08:33:24.471Z,101750.88
2022-11-26T08:36:27.941Z,101742.81
2022-11-26T08:39:32.032Z,101749.09
2022-11-26T08:42:34.886Z,101755.31
2022-11-26T08:45:37.600Z,101766.06
2022-11-26T08:48:40.657Z,101755.25
2022-11-26T08:51:43.711Z,101759.69
2022-11-26T08:54:48.155Z,101753.41
2022-11-26T08:57:51.200Z,101756.03
2022-11-26T09:00:54.065Z,101754.22
2022-11-26T09:03:59.230Z,101749.63
2022-11-26T09:07:02.287Z,101763.94
2022-11-26T09:10:07.937Z,101759.44
2022-11-26T09:13:10.690Z,101755.78
2022-11-26T09:16:13.445Z,101753.94
2022-11-26T09:19:17.670Z,101760.16
2022-11-26T09:22:20.370Z,101762.75
2022-11-26T09:25:24.460Z,101751.00
2022-11-26T09:28:35.066Z,101763.50
2022-11-26T09:31:49.707Z,101761.56
2022-11-26T09:35:00.494Z,101758.72
2022-11-26T09:38:03.693Z,101756.78
2022-11-26T09:41:16.661Z,101746.84
2022-11-26T09:44:34.974Z,101764.78
2022-11-26T09:47:41.692Z,101773.78
2022-11-26T09:50:46.724Z,101769.25
2022-11-26T09:53:52.561Z,101761.09
2022-11-26T09:57:03.394Z,101765.50
2022-11-26T10:00:16.881Z,101767.28
2022-11-26T10:03:21.026Z,101759.09
2022-11-26T10:06:37.460Z,101757.25
2022-11-26T10:09:55.642Z,101752.97
2022-11-26T10:13:19.148Z,101744.06
2022-11-26T10:16:28.724Z,101746.72
2022-11-26T10:19:41.040Z,101748.47
2022-11-26T10:22:56.760Z,101751.91
2022-11-26T10:26:06.754Z,101747.38
2022-11-26T10:29:21.714Z,101747.41
2022-11-26T10:32:27.490Z,101753.69
2022-11-26T10:35:31.423Z,101746.53
2022-11-26T10:38:34.149Z,101752.81
2022-11-26T10:41:38.809Z,101744.81
2022-11-26T10:44:42.654Z,101747.56
2022-11-26T10:47:47.002Z,101736.97
2022-11-26T10:51:02.238Z,101743.25
2022-11-26T10:54:07.532Z,101735.16
2022-11-26T10:57:15.334Z,101728.88
2022-11-26T11:00:39.233Z,101736.00
2022-11-26T11:04:08.794Z,101742.19
2022-11-26T11:07:29.539Z,101745.78
2022-11-26T11:10:32.292Z,101733.38
2022-11-26T11:13:42.494Z,101726.31
2022-11-26T11:16:46.563Z,101743.25
2022-11-26T11:19:50.759Z,101736.06
2022-11-26T11:22:59.958Z,101732.47
2022-11-26T11:26:05.723Z,101736.97
2022-11-26T11:29:25.345Z,101734.25
2022-11-26T11:32:36.086Z,101734.13
2022-11-26T11:35:40.364Z,101687.44
2022-11-26T11:38:49.265Z,101722.97
2022-11-26T11:41:52.382Z,101720.19
2022-11-26T11:44:57.254Z,101712.84
2022-11-26T11:48:05.661Z,101685.13
2022-11-26T11:51:18.955Z,101698.38
2022-11-26T11:54:26.923Z,101699.03
2022-11-26T11:58:03.371Z,101690.66
2022-11-26T12:01:15.195Z,101686.91
2022-11-26T12:04:31.995Z,101686.69
2022-11-26T12:07:41.989Z,101686.41
2022-11-26T12:10:54.115Z,101687.59
2022-11-26T12:14:02.225Z,101698.38
2022-11-26T12:17:09.290Z,101696.47
2022-11-26T12:20:21.775Z,101693.84
2022-11-26T12:23:31.013Z,101692.72
2022-11-26T12:26:38.133Z,101684.56
2022-11-26T12:29:45.214Z,101682.53
2022-11-26T12:32:52.176Z,101680.44
2022-11-26T12:35:59.835Z,101678.38
2022-11-26T12:39:17.799Z,101668.22
2022-11-26T12:42:26.808Z,101667.88
2022-11-26T12:45:42.555Z,101672.25
2022-11-26T12:48:52.408Z,101668.47
2022-11-26T12:52:12.239Z,101667.41
2022-11-26T12:55:20.596Z,101661.81
2022-11-26T12:58:28.289Z,101665.41
2022-11-26T13:01:33.091Z,101668.09
2022-11-26T13:04:38.209Z,101667.19
2022-11-26T13:07:59.354Z,101664.50
2022-11-26T13:11:17.025Z,101667.25
2022-11-26T13:14:28.837Z,101665.53
2022-11-26T13:17:44.561Z,101667.41
2022-11-26T13:21:00.426Z,101659.38
2022-11-26T13:24:23.768Z,101663.97
2022-11-26T13:27:49.545Z,101629.31
2022-11-26T13:31:07.138Z,101668.72
2022-11-26T13:34:27.479Z,101651.78
2022-11-26T13:38:00.723Z,101669.69
2022-11-26T13:41:22.611Z,101660.66
2022-11-26T13:44:52.862Z,101671.53
2022-11-26T13:48:00.738Z,101662.50
2022-11-26T13:51:10.588Z,101658.00
2022-11-26T13:54:17.647Z,101662.50
2022-11-26T13:57:24.485Z,101672.44
2022-11-26T14:00:31.472Z,101667.09
2022-11-26T14:03:52.169Z,101676.13
2022-11-26T14:07:20.238Z,101680.63
2022-11-26T14:10:44.321Z,101661.16
2022-11-26T14:14:24.581Z,101687.16
2022-11-26T14:17:34.912Z,101694.41
2022-11-26T14:21:12.930Z,101689.09
2022-11-26T14:24:55.193Z,101699.88
2022-11-26T14:28:02.338Z,101704.41
2022-11-26T14:31:13.258Z,101707.16
2022-11-26T14:34:23.802Z,101706.22
2022-11-26T14:37:28.779Z,101704.44
2022-11-26T14:40:33.592Z,101704.44
2022-11-26T14:43:37.681Z,101711.69
2022-11-26T14:46:41.841Z,101719.78
2022-11-26T14:49:50.318Z,101717.06
2022-11-26T14:52:57.359Z,101702.91
2022-11-26T14:56:00.936Z,101712.81
2022-11-26T14:59:07.320Z,101715.56
2022-11-26T15:02:22.014Z,101719.28
2022-11-26T15:05:27.664Z,101710.31
2022-11-26T15:08:30.687Z,101722.06
2022-11-26T15:11:34.987Z,101715.84
2022-11-26T15:14:44.134Z,101716.88
2022-11-26T15:17:52.959Z,101713.31
2022-11-26T15:20:56.600Z,101714.34
2022-11-26T15:24:03.184Z,101710.06
2022-11-26T15:27:06.100Z,101706.53
2022-11-26T15:30:20.720Z,101703.16
2022-11-26T15:33:24.146Z,101709.59
2022-11-26T15:36:26.934Z,101697.09
2022-11-26T15:39:31.727Z,101705.38
2022-11-26T15:42:35.352Z,101704.56
2022-11-26T15:45:41.561Z,101702.00
2022-11-26T15:48:52.902Z,101700.38
2022-11-26T15:51:59.635Z,101686.03
2022-11-26T15:55:15.654Z,101691.47
2022-11-26T15:58:23.368Z,101691.44
2022-11-26T16:01:29.998Z,101691.38
2022-11-26T16:04:40.913Z,101700.38
2022-11-26T16:07:57.538Z,101684.19
2022-11-26T16:11:07.930Z,101689.50
2022-11-26T16:14:24.816Z,101695.78
2022-11-26T16:17:28.933Z,101695.78
2022-11-26T16:20:31.701Z,101690.41
2022-11-26T16:23:34.822Z,101686.91
2022-11-26T16:26:57.502Z,101698.75
2022-11-26T16:30:03.735Z,101696.13
2022-11-26T16:33:08.406Z,101698.13
2022-11-26T16:36:27.501Z,101699.16
2022-11-26T16:39:36.078Z,101706.41
2022-11-26T16:42:42.034Z,101713.69
2022-11-26T16:45:45.141Z,101717.34
2022-11-26T16:48:49.559Z,101717.41
2022-11-26T16:51:52.311Z,101721.94
2022-11-26T16:55:23.570Z,101722.03
2022-11-26T16:58:28.830Z,101723.88
2022-11-26T17:01:31.667Z,101726.59
2022-11-26T17:04:36.012Z,101730.19
2022-11-26T17:07:42.865Z,101732.00
2022-11-26T17:10:48.143Z,101732.88
2022-11-26T17:13:51.168Z,101736.41
2022-11-26T17:16:53.970Z,101738.16
2022-11-26T17:19:58.138Z,101737.19
2022-11-26T17:23:00.957Z,101738.03
2022-11-26T17:26:08.420Z,101742.53
2022-11-26T17:29:13.948Z,101743.41
2022-11-26T17:32:18.994Z,101736.22
2022-11-26T17:35:23.126Z,101749.72
2022-11-26T17:38:25.983Z,101749.78
2022-11-26T17:41:28.762Z,101754.22
2022-11-26T17:44:31.471Z,101769.56
2022-11-26T17:47:34.249Z,101760.66
2022-11-26T17:50:38.339Z,101698.00
2022-11-26T17:53:41.377Z,101765.13
2022-11-26T17:56:44.130Z,101752.56
2022-11-26T17:59:46.972Z,101753.53
2022-11-26T18:02:50.126Z,101759.91
2022-11-26T18:05:54.361Z,101761.78
2022-11-26T18:08:57.065Z,101762.69
2022-11-26T18:12:00.798Z,101769.91
2022-11-26T18:15:04.052Z,101764.53
2022-11-26T18:18:07.521Z,101760.09
2022-11-26T18:21:13.031Z,101765.50
2022-11-26T18:24:15.777Z,101755.63
2022-11-26T18:27:18.706Z,101760.16
2022-11-26T18:30:21.842Z,101723.47
2022-11-26T18:33:24.546Z,101755.69
2022-11-26T18:36:29.331Z,101757.50
2022-11-26T18:39:32.064Z,101751.19
2022-11-26T18:42:37.539Z,101752.16
2022-11-26T18:45:42.864Z,101738.69
2022-11-26T18:48:47.547Z,101745.88
2022-11-26T18:51:51.786Z,101743.19
2022-11-26T18:54:54.498Z,101741.38
2022-11-26T18:57:57.303Z,101734.25
2022-11-26T19:01:00.162Z,101739.63
2022-11-26T19:04:03.959Z,101735.09
2022-11-26T19:07:08.045Z,101699.31
2022-11-26T19:10:12.236Z,101737.72
2022-11-26T19:13:15.241Z,101740.34
2022-11-26T19:16:20.184Z,101730.41
2022-11-26T19:19:23.069Z,101734.00
2022-11-26T19:22:27.250Z,101726.78
2022-11-26T19:25:30.604Z,101736.63
2022-11-26T19:28:33.753Z,101733.94
2022-11-26T19:31:39.000Z,101733.03
2022-11-26T19:34:41.821Z,101724.94
2022-11-26T19:37:46.017Z,101720.44
2022-11-26T19:40:48.721Z,101715.13
2022-11-26T19:43:51.560Z,101712.50
2022-11-26T19:46:54.341Z,101712.59
2022-11-26T19:49:57.057Z,101708.16
2022-11-26T19:53:02.178Z,101717.97
2022-11-26T19:56:06.865Z,101698.34
2022-11-26T19:59:09.764Z,101727.00
2022-11-26T20:02:12.652Z,101722.53
2022-11-26T20:05:16.496Z,101711.81
2022-11-26T20:08:21.591Z,101722.66
2022-11-26T20:11:24.856Z,101723.53
2022-11-26T20:14:27.559Z,101720.84
2022-11-26T20:17:30.856Z,101718.09
2022-11-26T20:20:33.705Z,101719.84
2022-11-26T20:23:38.280Z,101718.94
2022-11-26T20:26:42.786Z,101710.84
2022-11-26T20:29:45.592Z,101706.34
2022-11-26T20:32:49.094Z,101702.78
2022-11-26T20:35:51.870Z,101702.78
2022-11-26T20:38:57.313Z,101713.59
2022-11-26T20:42:00.043Z,101720.84
2022-11-26T20:45:04.905Z,101707.41
2022-11-26T20:48:07.727Z,101709.19
2022-11-26T20:51:13.528Z,101709.19
2022-11-26T20:54:17.681Z,101717.25
2022-11-26T20:57:21.503Z,101717.25
2022-11-26T21:00:27.580Z,101719.94
2022-11-26T21:03:31.030Z,101714.56
2022-11-26T21:06:35.919Z,101705.66
2022-11-26T21:09:40.230Z,101718.22
2022-11-26T21:12:43.668Z,101713.72
2022-11-26T21:15:47.896Z,101713.72
2022-11-26T21:18:50.599Z,101719.09
2022-11-26T21:21:53.349Z,101735.25
2022-11-26T21:24:57.434Z,101730.72
2022-11-26T21:28:00.134Z,101723.56
2022-11-26T21:31:08.243Z,101730.72
2022-11-26T21:34:12.145Z,101736.03
2022-11-26T21:37:14.917Z,101728.84
2022-11-26T21:40:19.254Z,101736.88
2022-11-26T21:43:21.959Z,101746.75
2022-11-26T21:46:26.920Z,101739.53
2022-11-26T21:49:30.922Z,101735.97
2022-11-26T21:52:33.722Z,101731.50
2022-11-26T21:55:37.798Z,101732.34
2022-11-26T21:58:40.920Z,101730.53
2022-11-26T22:01:44.380Z,101723.34
2022-11-26T22:04:47.283Z,101720.59
2022-11-26T22:07:50.720Z,101720.66
2022-11-26T22:10:54.906Z,101726.94
2022-11-26T22:13:57.750Z,101727.84
2022-11-26T22:17:00.455Z,101713.41
2022-11-26T22:20:05.930Z,101719.78
2022-11-26T22:23:08.620Z,101710.78
2022-11-26T22:26:12.948Z,101712.53
2022-11-26T22:29:17.142Z,101712.59
2022-11-26T22:32:20.100Z,101705.53
2022-11-26T22:35:22.793Z,101697.38
2022-11-26T22:38:25.515Z,101702.84
2022-11-26T22:41:29.629Z,101708.22
2022-11-26T22:44:33.962Z,101702.84
2022-11-26T22:47:36.885Z,101700.13
2022-11-26T22:50:39.886Z,101700.19
2022-11-26T22:53:43.522Z,101695.72
2022-11-26T22:56:47.721Z,101683.28
2022-11-26T22:59:50.417Z,101686.03
2022-11-26T23:02:53.206Z,101690.59
2022-11-26T23:05:56.772Z,101685.22
2022-11-26T23:09:00.493Z,101678.09
2022-11-26T23:12:05.388Z,101670.03
2022-11-26T23:15:09.347Z,101673.69
2022-11-26T23:18:13.666Z,101671.09
2022-11-26T23:21:18.805Z,101675.63
2022-11-26T23:24:21.933Z,101677.47
2022-11-26T23:27:26.007Z,101671.25
2022-11-26T23:30:29.610Z,101665.03
2022-11-26T23:33:32.381Z,101658.72
2022-11-26T23:36:36.680Z,101656.06
2022-11-26T23:39:39.627Z,101638.16
2022-11-26T23:42:43.889Z,101635.47
2022-11-26T23:45:46.682Z,101633.72
2022-11-26T23:48:50.428Z,101632.84
2022-11-26T23:51:53.310Z,101628.38
2022-11-26T23:54:56.039Z,101627.50
2022-11-26T23:58:00.119Z,101632.81
